Time;durP1;ratioP1;P1;durP2;ratioP2;P2;SDS_P1;SDS_P2;PMS_P1;PMS_P2;Temp;Humidity;BMP_temperature;BMP_pressure;BME280_temperature;BME280_humidity;BME280_pressure;Samples;Min_cycle;Max_cycle;Signal;HPM_P1;HPM_P2
2022/01/26 00:07:14;;;;;;;4.43;3.45;;;;;;;21.27;25.81;100671.56;5130745;28;20442;-56
2022/01/26 00:09:40;;;;;;;4.78;3.33;;;;;;;21.26;25.72;100667.16;5130528;28;20039;-56
2022/01/26 00:12:06;;;;;;;4.28;3.33;;;;;;;21.26;25.78;100669.97;5130384;28;20042;-56
2022/01/26 00:14:31;;;;;;;4.90;3.38;;;;;;;21.25;25.88;100670.31;5130328;28;20140;-56
2022/01/26 00:16:59;;;;;;;4.88;3.60;;;;;;;21.23;25.69;100667.88;5131308;28;20419;-56
2022/01/26 00:19:31;;;;;;;4.78;3.40;;;;;;;21.23;25.72;100667.88;5131169;28;20080;-56
2022/01/26 00:21:57;;;;;;;5.18;3.53;;;;;;;21.20;25.88;100659.41;5131235;28;20055;-56
2022/01/26 00:27:51;;;;;;;4.85;3.42;;;;;;;21.20;25.78;100664.97;5131144;28;20388;-56
2022/01/26 00:30:00;;;;;;;5.18;3.60;;;;;;;21.18;25.84;100665.31;5118513;28;20051;-55
2022/01/26 00:40:51;;;;;;;4.85;3.58;;;;;;;21.12;25.60;100666.69;5131074;28;20578;-56
2022/01/26 00:43:26;;;;;;;5.07;4.00;;;;;;;21.12;25.72;100669.47;5131138;28;20446;-56
2022/01/26 00:45:56;;;;;;;4.68;3.53;;;;;;;21.11;25.78;100665.09;5130772;28;20050;-56
2022/01/26 00:48:22;;;;;;;4.60;3.60;;;;;;;21.10;25.66;100667.06;5130777;28;20047;-56
2022/01/26 00:50:52;;;;;;;4.75;3.50;;;;;;;21.10;25.79;100669.03;5131005;28;20040;-56
2022/01/26 00:53:27;;;;;;;5.07;3.80;;;;;;;21.08;25.78;100665.78;5130810;28;20426;-47
2022/01/26 00:55:52;;;;;;;5.57;4.05;;;;;;;21.09;25.63;100659.88;5130549;28;20061;-46
2022/01/26 00:58:21;;;;;;;4.55;3.42;;;;;;;21.07;25.48;100666.91;5131378;28;20117;-47
2022/01/26 01:00:46;;;;;;;4.63;3.53;;;;;;;21.07;25.53;100661.34;5130612;28;20070;-47
2022/01/26 01:03:12;;;;;;;5.18;3.75;;;;;;;21.06;25.49;100656.97;5130373;28;20081;-46
2022/01/26 01:05:49;;;;;;;5.03;3.63;;;;;;;21.05;25.57;100649.78;5130401;28;20047;-46
2022/01/26 01:08:18;;;;;;;4.80;3.58;;;;;;;21.04;25.79;100653.72;5130278;28;20501;-57
2022/01/26 01:10:46;;;;;;;5.45;3.78;;;;;;;21.04;25.57;100659.28;5130149;28;20051;-56
2022/01/26 01:13:19;;;;;;;5.22;3.67;;;;;;;21.02;25.67;100651.28;5129803;28;20070;-56
2022/01/26 01:15:46;;;;;;;4.90;3.63;;;;;;;21.01;25.59;100648.84;5128817;27;20055;-56
2022/01/26 01:18:22;;;;;;;4.68;3.58;;;;;;;21.00;25.87;100645.22;5130242;28;20054;-56
2022/01/26 01:31:06;;;;;;;5.07;3.50;;;;;;;20.97;25.51;100659.84;5129999;28;20038;-56
2022/01/26 01:33:37;;;;;;;4.88;3.60;;;;;;;20.97;25.79;100661.81;5130154;28;20047;-56
2022/01/26 01:36:05;;;;;;;4.93;3.70;;;;;;;20.96;25.66;100662.97;5130151;28;20558;-56
2022/01/26 01:38:31;;;;;;;5.28;3.72;;;;;;;20.97;25.78;100661.81;5129896;28;20066;-56
2022/01/26 01:40:57;;;;;;;4.43;3.20;;;;;;;20.95;25.55;100659.38;5129797;28;20417;-56
2022/01/26 01:43:23;;;;;;;4.30;3.28;;;;;;;20.94;25.63;100665.31;5129911;28;20043;-56
2022/01/26 01:45:52;;;;;;;4.13;3.10;;;;;;;20.93;25.71;100669.22;5129896;28;20043;-56
2022/01/26 01:48:22;;;;;;;4.32;3.38;;;;;;;20.92;25.61;100673.97;5129684;28;20061;-55
2022/01/26 01:50:50;;;;;;;3.72;2.78;;;;;;;20.91;25.87;100672.34;5129785;28;20074;-55
2022/01/26 01:53:17;;;;;;;5.03;3.40;;;;;;;20.92;25.56;100673.97;5129519;28;20039;-56
2022/01/26 01:55:50;;;;;;;4.85;3.40;;;;;;;20.90;25.77;100676.28;5129376;28;20087;-56
2022/01/26 01:58:16;;;;;;;3.70;2.72;;;;;;;20.91;25.77;100677.09;5128910;28;20547;-55
2022/01/26 02:00:42;;;;;;;4.20;3.17;;;;;;;20.90;25.49;100676.28;5129710;28;20047;-55
2022/01/26 02:03:08;;;;;;;4.75;3.40;;;;;;;20.91;25.72;100677.09;5129316;28;20058;-55
2022/01/26 02:05:33;;;;;;;4.75;3.53;;;;;;;20.88;25.61;100671.09;5129284;28;20040;-55
2022/01/26 02:07:59;;;;;;;4.20;3.28;;;;;;;20.89;25.74;100669.09;5128678;28;20059;-56
2022/01/26 02:10:28;;;;;;;4.32;3.33;;;;;;;20.88;25.65;100679.41;5128921;28;20129;-56
2022/01/26 02:12:55;;;;;;;4.25;3.13;;;;;;;20.87;25.50;100677.81;5128308;28;20200;-56
2022/01/26 02:15:26;;;;;;;4.55;3.42;;;;;;;20.88;25.79;100676.66;5128497;28;20035;-57
2022/01/26 02:55:55;;;;;;;5.10;3.80;;;;;;;20.75;25.64;100669.44;5089795;28;20131;-56
2022/01/26 03:04:05;;;;;;;5.20;3.97;;;;;;;20.74;25.50;100676.16;5129178;28;20062;-56
2022/01/26 03:06:40;;;;;;;5.13;3.85;;;;;;;20.75;25.70;100674.19;5129154;28;20043;-56
2022/01/26 03:09:11;;;;;;;4.95;3.67;;;;;;;20.74;25.79;100676.16;5128934;28;20054;-55
2022/01/26 03:11:39;;;;;;;5.38;3.97;;;;;;;20.74;25.64;100669.78;5129156;28;20046;-47
2022/01/26 03:14:15;;;;;;;4.65;3.47;;;;;;;20.72;25.65;100672.91;5114102;28;20043;-47
2022/01/26 03:16:47;;;;;;;5.30;3.92;;;;;;;20.74;25.49;100673.38;5108577;28;20055;-47
2022/01/26 03:34:57;;;;;;;4.80;3.55;;;;;;;20.70;25.63;100675.19;5044605;28;20073;-46
2022/01/26 03:37:28;;;;;;;4.82;3.45;;;;;;;20.71;25.46;100673.22;5040106;28;20053;-46
2022/01/26 03:39:53;;;;;;;4.90;3.65;;;;;;;20.68;25.59;100666.41;5048863;28;20059;-46
2022/01/26 03:42:19;;;;;;;5.13;3.65;;;;;;;20.70;25.62;100669.63;5048695;28;20174;-46
2022/01/26 03:44:45;;;;;;;4.53;3.53;;;;;;;20.70;25.58;100668.81;5048119;28;20045;-45
2022/01/26 03:47:11;;;;;;;5.20;3.83;;;;;;;20.68;25.54;100669.19;5048477;28;20041;-45
2022/01/26 03:49:37;;;;;;;4.63;3.42;;;;;;;20.68;25.55;100663.63;5047989;28;20049;-46
2022/01/26 03:52:04;;;;;;;4.97;3.47;;;;;;;20.68;25.41;100674.72;5048249;28;20092;-46
2022/01/26 03:54:30;;;;;;;4.93;3.63;;;;;;;20.69;25.45;100661.66;5048018;28;20481;-47
2022/01/26 03:56:56;;;;;;;4.80;3.50;;;;;;;20.69;25.36;100661.66;5048468;28;20548;-46
2022/01/26 03:59:21;;;;;;;5.53;3.45;;;;;;;20.68;25.64;100669.19;5048321;28;20458;-46
2022/01/26 04:01:46;;;;;;;5.35;4.00;;;;;;;20.66;25.33;100663.16;5081615;28;20039;-45
2022/01/26 04:04:12;;;;;;;4.35;3.42;;;;;;;20.67;25.67;100664.78;5131965;28;20039;-46
2022/01/26 04:06:38;;;;;;;5.32;3.80;;;;;;;20.68;25.45;100671.97;5112871;28;20039;-47
2022/01/26 04:09:07;;;;;;;5.18;3.55;;;;;;;20.66;25.40;100660.38;5131538;28;20405;-46
2022/01/26 04:11:38;;;;;;;4.85;3.58;;;;;;;20.65;25.46;100658.75;5131400;28;20043;-46
2022/01/26 04:14:07;;;;;;;5.05;3.75;;;;;;;20.66;25.56;100659.56;5131531;28;20108;-47
2022/01/26 04:16:34;;;;;;;4.65;3.55;;;;;;;20.66;25.50;100660.38;5131559;28;20070;-46
2022/01/26 04:18:59;;;;;;;4.57;3.30;;;;;;;20.63;25.47;100658.25;5131171;28;20388;-47
2022/01/26 04:21:36;;;;;;;4.88;3.60;;;;;;;20.65;25.62;100661.53;5131553;28;20047;-48
2022/01/26 04:24:10;;;;;;;4.45;3.17;;;;;;;20.64;25.43;100662.66;5130724;28;20065;-47
2022/01/26 04:26:44;;;;;;;5.13;3.88;;;;;;;20.64;25.37;100665.44;5128702;28;20047;-46
2022/01/26 04:29:15;;;;;;;5.20;3.70;;;;;;;20.63;25.41;100658.25;5131259;28;20047;-48
2022/01/26 04:31:40;;;;;;;5.35;3.53;;;;;;;20.64;25.59;100661.84;5131188;28;20043;-47
2022/01/26 04:34:06;;;;;;;4.82;3.55;;;;;;;20.64;25.64;100659.88;5131038;28;20046;-46
2022/01/26 04:36:34;;;;;;;5.07;3.70;;;;;;;20.62;25.58;100664.97;5112614;28;20043;-47
2022/01/26 04:39:05;;;;;;;4.60;3.63;;;;;;;20.60;25.34;100661.75;5128961;28;20047;-48
2022/01/26 04:44:16;;;;;;;5.20;4.07;;;;;;;20.61;25.59;100658.63;5131263;28;20088;-47
2022/01/26 04:46:41;;;;;;;4.60;3.50;;;;;;;20.60;25.42;100653.41;5131090;28;20418;-57
2022/01/26 04:49:07;;;;;;;4.90;3.88;;;;;;;20.60;25.42;100653.41;5129926;27;20491;-57
2022/01/26 04:51:32;;;;;;;4.70;3.50;;;;;;;20.60;25.42;100656.19;5130340;28;20035;-47
2022/01/26 04:53:57;;;;;;;4.82;3.60;;;;;;;20.59;25.69;100652.59;5130171;28;20188;-47
2022/01/26 04:56:23;;;;;;;4.80;3.40;;;;;;;20.59;25.62;100657.34;5128504;28;20046;-48
2022/01/26 04:58:48;;;;;;;5.18;3.70;;;;;;;20.58;25.46;100652.94;5129992;28;20157;-47
2022/01/26 05:01:14;;;;;;;5.20;3.72;;;;;;;20.58;25.53;100658.50;5127927;28;20062;-47
2022/01/26 05:03:39;;;;;;;5.10;3.67;;;;;;;20.59;25.49;100657.34;5117191;28;20063;-47
2022/01/26 05:06:05;;;;;;;4.53;3.30;;;;;;;20.58;25.41;100650.16;5130771;28;20044;-48
2022/01/26 05:08:30;;;;;;;4.93;3.60;;;;;;;20.58;25.51;100655.72;5130706;28;20456;-47
2022/01/26 05:10:56;;;;;;;4.55;3.33;;;;;;;20.56;25.46;100652.44;5130538;28;20457;-47
2022/01/26 05:13:22;;;;;;;5.57;3.60;;;;;;;20.56;25.58;100653.25;5129946;28;20043;-47
2022/01/26 05:15:47;;;;;;;4.70;3.47;;;;;;;20.57;25.46;100648.50;5130500;28;20039;-47
2022/01/26 05:18:13;;;;;;;4.80;3.38;;;;;;;20.57;25.64;100648.50;5130494;28;20035;-47
2022/01/26 05:20:38;;;;;;;4.88;3.60;;;;;;;20.56;25.43;100656.03;5130013;28;20039;-45
2022/01/26 05:23:03;;;;;;;5.03;3.55;;;;;;;20.56;25.62;100649.69;5129917;28;20039;-45
2022/01/26 05:25:29;;;;;;;5.13;3.60;;;;;;;20.56;25.42;100649.69;5130130;28;20039;-45
2022/01/26 05:27:54;;;;;;;4.70;3.60;;;;;;;20.56;25.47;100650.47;5129977;28;20050;-46
2022/01/26 05:30:20;;;;;;;4.13;3.35;;;;;;;20.56;25.59;100656.03;5128498;28;20035;-46
2022/01/26 05:32:46;;;;;;;4.65;3.30;;;;;;;20.55;25.46;100656.38;5129852;28;20100;-47
2022/01/26 05:35:11;;;;;;;4.93;3.78;;;;;;;20.53;25.48;100662.31;5117779;28;20052;-49
2022/01/26 05:37:37;;;;;;;5.45;3.90;;;;;;;20.60;25.61;100656.19;5109538;28;20039;-46
2022/01/26 05:40:04;;;;;;;4.50;3.45;;;;;;;20.61;25.45;100660.59;5109080;28;20043;-45
2022/01/26 05:42:30;;;;;;;5.05;3.70;;;;;;;20.65;25.49;100655.16;5108602;28;20071;-46
2022/01/26 05:45:03;;;;;;;5.35;3.53;;;;;;;20.70;25.33;100660.47;5109438;28;20071;-46
2022/01/26 05:47:31;;;;;;;5.10;3.50;;;;;;;20.74;25.34;100655.88;5109493;28;20048;-55
2022/01/26 05:49:56;;;;;;;5.05;3.55;;;;;;;20.74;25.34;100661.44;5109613;28;20542;-56
2022/01/26 05:52:22;;;;;;;4.70;3.40;;;;;;;20.74;25.41;100650.31;5109437;28;20127;-56
2022/01/26 05:54:47;;;;;;;4.82;3.25;;;;;;;20.74;25.30;100651.13;5109352;28;20043;-56
2022/01/26 05:57:13;;;;;;;4.90;3.63;;;;;;;20.74;25.27;100656.69;5109497;28;20404;-55
2022/01/26 05:59:38;;;;;;;4.97;3.67;;;;;;;20.74;25.42;100651.13;5108584;28;20507;-56
2022/01/26 06:02:04;;;;;;;4.43;3.40;;;;;;;20.74;25.44;100651.13;5108956;28;20134;-56
2022/01/26 06:04:30;;;;;;;4.57;3.47;;;;;;;20.73;25.31;100641.16;5109278;28;20051;-56
2022/01/26 06:06:56;;;;;;;4.90;3.63;;;;;;;20.73;25.42;100649.50;5109127;28;20074;-56
2022/01/26 06:09:22;;;;;;;4.75;3.33;;;;;;;20.73;30.89;100652.28;5109164;28;20420;-59
2022/01/26 06:11:48;;;;;;;5.65;3.10;;;;;;;20.70;26.96;100646.59;5108678;28;20150;-57
2022/01/26 06:14:13;;;;;;;4.53;3.22;;;;;;;20.68;26.14;100649.72;5108676;28;20570;-57
2022/01/26 06:16:39;;;;;;;4.70;3.20;;;;;;;20.68;26.09;100643.34;5109046;28;20047;-57
2022/01/26 06:19:04;;;;;;;5.00;3.50;;;;;;;20.67;25.85;100648.09;5109020;28;20040;-57
2022/01/26 06:21:30;;;;;;;4.93;3.05;;;;;;;20.66;25.88;100651.22;5108997;28;20060;-59
2022/01/26 06:23:55;;;;;;;4.32;2.97;;;;;;;20.67;25.93;100650.88;5109180;28;20047;-59
2022/01/26 06:26:21;;;;;;;4.47;3.08;;;;;;;20.67;25.81;100656.44;5108008;28;20039;-59
2022/01/26 06:28:46;;;;;;;4.13;3.10;;;;;;;20.66;25.83;100648.44;5108982;28;20035;-59
2022/01/26 06:31:15;;;;;;;4.20;3.25;;;;;;;20.67;25.73;100650.88;5108247;28;20043;-59
2022/01/26 06:33:42;;;;;;;5.28;3.40;;;;;;;20.67;25.63;100656.44;5108568;28;20407;-59
2022/01/26 06:36:13;;;;;;;4.65;3.40;;;;;;;20.66;25.60;100648.44;5108556;28;20093;-60
2022/01/26 06:38:42;;;;;;;4.22;3.20;;;;;;;20.67;25.49;100650.88;5108315;28;20487;-60
2022/01/26 06:41:08;;;;;;;4.68;3.10;;;;;;;20.69;25.57;100659.69;5108710;28;20040;-60
2022/01/26 06:43:34;;;;;;;4.88;3.33;;;;;;;20.68;25.51;100660.03;5108938;28;20490;-60
2022/01/26 06:46:03;;;;;;;3.72;2.88;;;;;;;20.68;25.35;100658.06;5109178;28;20092;-57
2022/01/26 06:51:01;;;;;;;4.18;3.20;;;;;;;20.67;25.34;100666.75;5108435;28;20526;-57
2022/01/26 06:53:26;;;;;;;4.22;3.25;;;;;;;20.68;25.37;100666.41;5108706;28;20044;-58
2022/01/26 06:55:52;;;;;;;3.90;3.05;;;;;;;20.69;25.39;100670.78;5108676;28;20044;-57
2022/01/26 06:58:17;;;;;;;3.88;3.00;;;;;;;20.68;25.39;100666.41;5108721;28;20131;-58
2022/01/26 07:00:43;;;;;;;3.78;2.88;;;;;;;20.68;25.39;100677.50;5108710;28;20059;-57
2022/01/26 07:03:09;;;;;;;4.28;3.00;;;;;;;20.69;25.38;100681.09;5108812;28;20050;-57
2022/01/26 07:05:35;;;;;;;4.30;3.13;;;;;;;20.69;25.27;100686.66;5106586;28;20063;-57
2022/01/26 07:08:01;;;;;;;4.22;3.13;;;;;;;20.69;25.28;100693.03;5106364;28;20118;-57
2022/01/26 07:10:27;;;;;;;4.10;2.97;;;;;;;20.68;25.24;100691.41;5106886;28;20641;-57
2022/01/26 07:12:52;;;;;;;4.25;3.13;;;;;;;20.69;25.36;100693.03;5107939;28;20499;-57
2022/01/26 07:23:43;;;;;;;4.13;2.85;;;;;;;20.68;25.36;100710.88;5099045;28;20105;-60
2022/01/26 07:26:09;;;;;;;4.75;3.38;;;;;;;20.65;25.33;100708.78;5100718;28;20071;-58
2022/01/26 07:28:38;;;;;;;5.78;3.45;;;;;;;20.66;25.30;100710.41;5100244;28;20070;-59
2022/01/26 07:31:04;;;;;;;4.72;3.35;;;;;;;20.66;25.58;100704.03;5092738;28;20496;-57
2022/01/26 07:33:30;;;;;;;4.10;3.17;;;;;;;20.65;25.67;100708.78;5097074;28;20036;-57
2022/01/26 07:35:56;;;;;;;4.50;3.10;;;;;;;20.65;25.80;100708.78;5097595;28;20515;-57
2022/01/26 07:38:22;;;;;;;4.38;2.85;;;;;;;20.63;25.78;100704.72;5100151;28;20059;-57
2022/01/26 07:40:49;;;;;;;4.68;3.00;;;;;;;20.63;25.68;100708.31;5093273;28;20035;-57
2022/01/26 07:43:16;;;;;;;4.50;3.20;;;;;;;20.63;25.75;100710.28;5105301;28;20062;-57
2022/01/26 07:45:41;;;;;;;5.22;3.35;;;;;;;20.62;25.76;100703.91;5104622;28;20403;-56
2022/01/26 07:48:07;;;;;;;4.88;3.15;;;;;;;20.60;25.75;100697.88;5107289;28;20130;-56
2022/01/26 07:50:33;;;;;;;4.85;3.20;;;;;;;20.59;25.60;100697.06;5103419;28;20050;-56
2022/01/26 07:53:00;;;;;;;3.75;2.90;;;;;;;20.59;25.62;100705.41;5094205;28;20036;-57
2022/01/26 07:55:26;;;;;;;4.28;2.75;;;;;;;20.58;25.75;100700.19;5094367;28;20047;-56
2022/01/26 07:57:55;;;;;;;4.50;3.22;;;;;;;20.57;25.67;100695.75;5106520;28;20131;-57
2022/01/26 08:00:21;;;;;;;4.38;3.40;;;;;;;20.55;26.01;100698.09;5092210;28;20056;-64
2022/01/26 08:02:47;;;;;;;3.90;2.83;;;;;;;20.55;25.96;100698.09;5096725;28;20082;-57
2022/01/26 08:05:14;;;;;;;3.95;3.03;;;;;;;20.57;25.84;100701.31;5102548;28;20068;-57
2022/01/26 08:07:40;;;;;;;5.05;3.45;;;;;;;20.56;25.98;100710.81;5105294;28;20055;-58
2022/01/26 08:10:07;;;;;;;4.88;3.42;;;;;;;20.60;25.92;100707.03;5105786;28;20766;-58
2022/01/26 08:12:33;;;;;;;5.82;3.72;;;;;;;20.64;25.92;100712.69;5107052;28;20105;-62
2022/01/26 08:14:59;;;;;;;6.32;4.30;;;;;;;20.64;26.36;100700.78;5095663;28;20097;-58
2022/01/26 08:17:24;;;;;;;5.10;3.75;;;;;;;20.63;26.71;100701.94;5101276;28;20104;-58
2022/01/26 08:19:52;;;;;;;6.55;3.95;;;;;;;20.70;26.67;100716.09;5104346;28;20104;-58
2022/01/26 08:22:19;;;;;;;64.28;12.65;;;;;;;20.75;26.99;100715.88;5099847;28;20044;-58
2022/01/26 08:24:46;;;;;;;15.55;6.30;;;;;;;20.75;27.43;100716.69;5102261;28;20055;-59
2022/01/26 08:27:13;;;;;;;37.30;8.48;;;;;;;20.79;27.80;100717.66;5105845;28;20598;-57
2022/01/26 08:29:43;;;;;;;19.58;6.35;;;;;;;20.84;27.50;100717.41;5094404;28;20044;-59
2022/01/26 08:32:09;;;;;;;21.08;6.53;;;;;;;20.87;27.34;100718.72;5100057;28;20051;-59
2022/01/26 08:34:35;;;;;;;22.23;7.00;;;;;;;20.88;27.25;100707.25;5096026;28;20054;-56
2022/01/26 08:37:01;;;;;;;18.50;7.00;;;;;;;20.90;27.32;100709.66;5077526;28;20055;-58
2022/01/26 08:39:26;;;;;;;19.30;9.77;;;;;;;20.81;26.45;100709.75;5093052;28;20044;-57
2022/01/26 08:41:52;;;;;;;21.00;10.65;;;;;;;20.80;26.35;100710.94;5098746;28;20036;-55
2022/01/26 08:44:17;;;;;;;18.98;7.95;;;;;;;20.79;26.65;100703.75;5098192;28;20403;-57
2022/01/26 08:46:43;;;;;;;12.40;7.18;;;;;;;20.83;26.58;100712.19;5104306;28;20036;-57
2022/01/26 08:49:09;;;;;;;14.77;7.88;;;;;;;20.82;26.71;100711.38;5100640;28;20063;-57
2022/01/26 08:51:35;;;;;;;15.15;6.90;;;;;;;20.79;27.04;100722.41;5103246;28;20035;-58
2022/01/26 08:54:01;;;;;;;15.43;7.00;;;;;;;20.81;26.93;100725.63;5092740;28;20047;-58
2022/01/26 08:56:27;;;;;;;14.23;6.03;;;;;;;20.85;27.04;100729.34;5099554;28;20039;-60
2022/01/26 08:58:53;;;;;;;9.95;5.78;;;;;;;20.88;27.08;100728.66;5096029;28;20039;-61
2022/01/26 09:01:19;;;;;;;10.30;6.25;;;;;;;20.88;27.26;100725.91;5101967;28;20139;-62
2022/01/26 09:03:45;;;;;;;10.05;6.15;;;;;;;20.91;27.07;100725.19;5103297;28;20134;-62
2022/01/26 09:06:11;;;;;;;12.23;5.53;;;;;;;20.89;27.26;100728.31;5099145;28;20073;-61
2022/01/26 09:08:39;;;;;;;10.45;5.75;;;;;;;20.91;27.44;100722.41;5106105;28;20070;-63
2022/01/26 09:11:04;;;;;;;8.52;5.20;;;;;;;20.93;27.15;100716.50;5097548;28;20071;-60
2022/01/26 09:13:32;;;;;;;8.27;5.20;;;;;;;20.96;27.02;100726.94;5103108;28;20082;-59
2022/01/26 09:16:03;;;;;;;8.05;5.00;;;;;;;20.97;26.87;100728.56;5097249;28;20164;-59
2022/01/26 09:18:50;;;;;;;8.65;5.57;;;;;;;20.97;27.49;100731.34;5100369;28;20042;-59
2022/01/26 09:21:16;;;;;;;6.82;4.70;;;;;;;21.01;27.09;100721.19;5096026;28;20048;-59
2022/01/26 09:23:42;;;;;;;8.70;5.03;;;;;;;20.99;27.39;100724.28;5100746;28;20199;-59
2022/01/26 09:26:07;;;;;;;10.15;6.03;;;;;;;21.05;26.91;100722.91;5101836;28;20162;-62
2022/01/26 09:28:33;;;;;;;10.80;5.63;;;;;;;21.05;27.35;100724.88;5094254;28;20661;-58
2022/01/26 09:30:58;;;;;;;7.50;5.13;;;;;;;21.08;27.25;100730.59;5091111;28;20064;-58
2022/01/26 09:33:23;;;;;;;8.90;4.72;;;;;;;21.13;27.21;100726.75;5097900;28;20400;-61
2022/01/26 09:35:49;;;;;;;8.32;4.68;;;;;;;21.14;27.26;100720.03;5098149;28;20269;-60
2022/01/26 09:38:15;;;;;;;7.45;4.57;;;;;;;21.14;27.11;100722.81;5097919;28;20043;-59
2022/01/26 09:40:40;;;;;;;5.47;4.10;;;;;;;21.15;26.61;100725.25;5102090;28;20505;-59
2022/01/26 09:43:06;;;;;;;6.20;4.40;;;;;;;21.14;26.97;100726.41;5096619;28;20052;-60
2022/01/26 09:45:34;;;;;;;6.95;4.47;;;;;;;21.16;26.99;100723.28;5094911;28;20722;-60
2022/01/26 09:48:04;;;;;;;6.60;4.40;;;;;;;21.14;26.89;100722.81;5096436;28;20520;-60
2022/01/26 09:50:30;;;;;;;5.20;4.15;;;;;;;21.16;26.51;100726.06;5095806;28;20036;-60
2022/01/26 09:52:56;;;;;;;6.35;4.50;;;;;;;21.16;26.65;100734.41;5103279;28;20546;-60
2022/01/26 09:55:23;;;;;;;6.38;4.50;;;;;;;21.16;26.56;100729.66;5098258;28;20054;-60
2022/01/26 09:57:48;;;;;;;5.47;4.13;;;;;;;21.17;26.53;100730.47;5096201;28;20051;-59
2022/01/26 10:00:15;;;;;;;5.65;4.30;;;;;;;21.17;26.82;100730.47;5098350;28;20040;-60
2022/01/26 10:02:44;;;;;;;6.22;4.55;;;;;;;21.14;26.54;100723.63;5098453;28;20055;-59
2022/01/26 10:05:16;;;;;;;5.88;4.32;;;;;;;21.14;26.66;100717.25;5102753;28;20518;-62
2022/01/26 10:07:55;;;;;;;8.70;4.43;;;;;;;21.17;26.41;100719.34;5097699;28;21097;-59
2022/01/26 10:15:27;;;;;;;5.78;4.05;;;;;;;21.16;26.38;100710.19;5100960;28;21730;-59
2022/01/26 10:16:40;;;;;;;6.38;4.68;;;;;;;21.18;26.38;100704.28;5098935;28;20102;-60
2022/01/26 10:19:09;;;;;;;5.63;4.05;;;;;;;21.18;26.42;100707.06;5102967;28;20039;-62
2022/01/26 10:21:51;;;;;;;5.20;3.85;;;;;;;21.19;26.28;100705.09;5098280;28;20044;-58
2022/01/26 10:24:28;;;;;;;6.03;4.45;;;;;;;21.22;26.57;100699.66;5096816;28;20411;-51
2022/01/26 10:26:59;;;;;;;5.78;4.03;;;;;;;21.25;26.36;100698.94;5085129;28;20559;-57
2022/01/26 10:29:26;;;;;;;5.72;4.20;;;;;;;21.26;26.40;100699.75;5091623;28;20078;-59
2022/01/26 10:31:52;;;;;;;5.30;3.85;;;;;;;21.24;26.70;100691.75;5076893;28;20236;-60
2022/01/26 10:34:23;;;;;;;6.90;4.30;;;;;;;21.26;26.64;100697.78;5095084;28;20067;-60
2022/01/26 10:36:59;;;;;;;5.60;3.97;;;;;;;21.24;26.67;100686.19;5094129;28;20048;-59
2022/01/26 10:39:29;;;;;;;5.45;4.30;;;;;;;21.28;26.64;100686.31;5099295;28;20047;-57
2022/01/26 10:42:00;;;;;;;5.45;4.00;;;;;;;21.29;26.38;100687.94;5098399;28;20035;-60
2022/01/26 10:44:45;;;;;;;5.68;3.90;;;;;;;21.30;26.37;100681.25;5098895;28;20047;-60
2022/01/26 10:47:11;;;;;;;5.93;4.15;;;;;;;21.30;26.59;100668.16;5098756;28;20044;-60
2022/01/26 10:52:20;;;;;;;5.53;3.92;;;;;;;21.31;26.59;100655.84;5102797;28;20308;-60
2022/01/26 10:54:47;;;;;;;5.28;3.72;;;;;;;21.31;26.76;100663.38;5104392;28;20059;-58
2022/01/26 10:57:13;;;;;;;5.68;3.88;;;;;;;21.31;26.49;100660.59;5104110;28;20042;-58
2022/01/26 10:59:43;;;;;;;5.50;3.65;;;;;;;21.28;26.75;100645.41;5103768;28;20035;-59
2022/01/26 11:02:11;;;;;;;7.60;4.45;;;;;;;21.29;26.76;100643.41;5087393;28;20060;-58
2022/01/26 11:04:40;;;;;;;5.47;4.30;;;;;;;21.28;26.76;100637.03;5084106;28;20431;-59
2022/01/26 11:07:08;;;;;;;5.60;4.03;;;;;;;21.24;26.69;100636.09;5104324;28;20055;-60
2022/01/26 11:09:36;;;;;;;5.50;4.10;;;;;;;21.28;26.60;100636.25;5106966;28;20108;-58
2022/01/26 11:12:06;;;;;;;5.32;3.97;;;;;;;21.29;26.47;100624.78;5107756;28;20496;-58
2022/01/26 11:14:50;;;;;;;5.43;3.90;;;;;;;21.30;26.77;100614.47;5096037;28;20139;-58
2022/01/26 11:17:30;;;;;;;5.32;4.20;;;;;;;21.31;26.62;100616.88;5096394;28;20036;-59
2022/01/26 11:19:57;;;;;;;6.05;4.18;;;;;;;21.32;26.58;100601.81;5098032;28;20537;-58
2022/01/26 11:22:30;;;;;;;6.38;4.30;;;;;;;21.32;26.54;100593.47;5095877;28;20123;-59
2022/01/26 11:25:07;;;;;;;5.20;3.88;;;;;;;21.34;26.25;100595.88;5102523;28;20032;-58
2022/01/26 11:27:35;;;;;;;5.30;4.05;;;;;;;21.32;26.30;100595.44;5098325;28;20050;-58
2022/01/26 11:30:04;;;;;;;5.97;4.25;;;;;;;21.34;26.33;100591.13;5100032;28;20039;-58
2022/01/26 11:32:35;;;;;;;5.47;3.97;;;;;;;21.35;26.42;100587.19;5101555;28;20109;-58
2022/01/26 11:35:08;;;;;;;5.50;3.95;;;;;;;21.36;26.21;100582.44;5096984;28;20109;-58
2022/01/26 11:37:43;;;;;;;6.63;4.15;;;;;;;21.37;26.28;100567.38;5103064;28;20139;-58
2022/01/26 11:45:34;;;;;;;4.57;3.78;;;;;;;21.37;26.13;100556.25;5103435;28;20043;-59
2022/01/26 11:48:03;;;;;;;5.65;4.15;;;;;;;21.37;26.42;100556.25;5100561;28;20551;-60
2022/01/26 11:50:29;;;;;;;6.60;4.00;;;;;;;21.38;26.46;100553.09;5096168;28;20150;-58
2022/01/26 11:53:05;;;;;;;6.97;4.50;;;;;;;21.40;26.60;100555.53;5105518;28;20073;-59
2022/01/26 11:55:35;;;;;;;5.20;3.80;;;;;;;21.42;26.24;100553.19;5108188;28;20040;-58
2022/01/26 11:58:27;;;;;;;5.57;3.97;;;;;;;21.40;26.46;100547.19;5103993;28;20294;-59
2022/01/26 12:01:17;;;;;;;6.97;4.03;;;;;;;21.42;26.07;100550.41;5095537;28;20126;-59
2022/01/26 12:03:55;;;;;;;4.95;3.67;;;;;;;21.43;26.09;100540.91;5100799;28;20048;-59
2022/01/26 12:06:36;;;;;;;4.63;3.40;;;;;;;21.42;25.97;100542.88;5107188;28;20147;-59
2022/01/26 12:09:05;;;;;;;4.85;3.70;;;;;;;21.44;26.17;100531.41;5091153;28;20457;-59
2022/01/26 12:11:30;;;;;;;5.68;3.58;;;;;;;21.43;26.11;100533.38;5098549;28;20039;-59
2022/01/26 12:14:00;;;;;;;4.78;3.33;;;;;;;21.41;26.12;100524.56;5108295;28;20051;-60
2022/01/26 12:16:42;;;;;;;4.85;3.50;;;;;;;21.42;26.17;100528.16;5101555;28;20457;-60
2022/01/26 12:33:02;;;;;;;4.43;3.17;;;;;;;21.47;25.71;100507.63;5103345;28;20969;-59
2022/01/26 12:38:25;;;;;;;4.15;2.80;;;;;;;21.49;25.61;100505.28;5105264;28;20051;-59
2022/01/26 12:43:57;;;;;;;3.83;2.80;;;;;;;21.51;25.45;100500.19;5059636;28;20515;-59
2022/01/26 12:46:28;;;;;;;4.25;2.78;;;;;;;21.50;25.29;100498.53;5103326;28;20052;-59
2022/01/26 12:48:58;;;;;;;4.63;2.90;;;;;;;21.51;25.83;100494.63;5104202;28;20039;-59
2022/01/26 12:51:24;;;;;;;8.55;2.75;;;;;;;21.49;25.67;100486.59;5100700;28;20076;-59
2022/01/26 12:53:57;;;;;;;3.78;2.45;;;;;;;21.50;25.61;100481.84;5098977;28;20070;-59
2022/01/26 12:56:28;;;;;;;3.85;2.80;;;;;;;21.49;25.91;100481.03;5087898;28;20051;-64
2022/01/26 12:59:06;;;;;;;4.55;2.70;;;;;;;21.52;25.89;100480.34;5105149;28;20158;-58
2022/01/26 13:01:32;;;;;;;3.80;2.70;;;;;;;21.54;26.21;100479.97;5097076;28;20055;-58
2022/01/26 13:04:02;;;;;;;4.10;2.70;;;;;;;21.56;26.54;100469.28;5097895;28;20042;-63
2022/01/26 13:06:37;;;;;;;5.65;2.88;;;;;;;21.56;26.90;100460.94;5085556;28;20052;-57
2022/01/26 13:09:15;;;;;;;4.75;2.88;;;;;;;21.58;26.70;100456.66;5081768;28;20040;-58
2022/01/26 13:11:41;;;;;;;6.85;3.20;;;;;;;21.58;26.20;100447.50;5095966;28;20047;-57
2022/01/26 13:14:22;;;;;;;15.60;11.35;;;;;;;21.50;25.09;100451.22;5092295;28;20104;-59
2022/01/26 13:22:52;;;;;;;21.13;14.45;;;;;;;20.53;26.14;100434.38;5096026;28;20043;-58
2022/01/26 13:31:12;;;;;;;14.55;8.60;;;;;;;20.85;26.44;100432.59;5082214;28;20051;-60
2022/01/26 13:39:52;;;;;;;11.15;7.28;;;;;;;21.14;27.05;100416.78;5081744;28;20202;-58
2022/01/26 13:48:14;;;;;;;8.63;5.30;;;;;;;21.32;27.14;100412.56;5055928;28;20070;-59
2022/01/26 13:50:43;;;;;;;7.15;5.20;;;;;;;21.40;26.91;100411.59;5080245;28;20056;-57
2022/01/26 13:53:19;;;;;;;6.60;4.60;;;;;;;21.44;26.89;100403.38;5089681;28;20047;-59
2022/01/26 14:00:58;;;;;;;6.13;4.38;;;;;;;21.60;26.90;100414.53;5083931;28;20048;-59
2022/01/26 14:03:27;;;;;;;;;;;;;;;21.68;26.98;100397.66;5068393;28;20211;-68
2022/01/26 14:05:52;;;;;;;6.43;3.85;;;;;;;21.68;27.27;100391.28;5082280;28;19927;-59
2022/01/26 14:08:18;;;;;;;5.22;3.67;;;;;;;21.70;27.21;100400.09;5084064;28;20052;-62
2022/01/26 14:10:46;;;;;;;6.10;3.85;;;;;;;21.69;27.48;100404.03;5080751;28;20126;-57